Time;durP1;ratioP1;P1;durP2;ratioP2;P2;SDS_P1;SDS_P2;PMS_P1;PMS_P2;Temp;Humidity;BMP_temperature;BMP_pressure;BME280_temperature;BME280_humidity;BME280_pressure;Samples;Min_cycle;Max_cycle;Signal;HPM_P1;HPM_P2
2021/10/23 00:00:43;;;;;;;53.22;35.28;;;;;;;;;;6232466;28;20038;-66
2021/10/23 00:03:45;;;;;;;52.05;33.88;;;;;;;;;;6243701;28;20055;-65
2021/10/23 00:06:47;;;;;;;50.42;33.97;;;;;;;;;;6236387;28;20686;-65
2021/10/23 00:09:48;;;;;;;54.70;34.05;;;;;;;;;;6242411;28;20140;-65
2021/10/23 00:12:50;;;;;;;51.28;35.08;;;;;;;;;;6234363;28;20430;-66
2021/10/23 00:15:51;;;;;;;52.92;34.65;;;;;;;;;;6227473;28;20033;-65
2021/10/23 00:18:54;;;;;;;51.15;34.33;;;;;;;;;;6242443;28;20049;-66
2021/10/23 00:21:55;;;;;;;54.00;36.28;;;;;;;;;;6233633;28;20086;-65
2021/10/23 00:24:57;;;;;;;52.72;34.35;;;;;;;;;;6243841;28;20048;-65
2021/10/23 00:27:58;;;;;;;51.95;34.15;;;;;;;;;;6232648;28;20050;-65
2021/10/23 00:30:59;;;;;;;47.05;33.50;;;;;;;;;;6231835;28;20041;-64
2021/10/23 00:34:02;;;;;;;50.30;33.97;;;;;;;;;;6236881;28;19921;-65
2021/10/23 00:37:03;;;;;;;48.17;33.67;;;;;;;;;;6229798;28;20132;-66
2021/10/23 00:40:05;;;;;;;51.03;34.75;;;;;;;;;;6245706;28;20063;-66
2021/10/23 00:43:07;;;;;;;51.35;34.20;;;;;;;;;;6238124;28;20129;-66
2021/10/23 00:46:08;;;;;;;53.75;34.75;;;;;;;;;;6231559;28;20134;-65
2021/10/23 00:49:11;;;;;;;48.08;33.70;;;;;;;;;;6242446;28;20069;-65
2021/10/23 00:52:13;;;;;;;48.97;33.40;;;;;;;;;;6234162;28;20090;-65
2021/10/23 00:55:14;;;;;;;50.88;32.60;;;;;;;;;;6250356;28;20138;-65
2021/10/23 00:58:15;;;;;;;56.33;34.88;;;;;;;;;;6250375;28;20042;-65
2021/10/23 01:01:17;;;;;;;47.40;33.60;;;;;;;;;;6223378;28;20049;-65
2021/10/23 01:04:21;;;;;;;47.15;33.08;;;;;;;;;;6242114;28;20140;-65
2021/10/23 01:07:22;;;;;;;;;;;;;;;;;;6238104;28;20452;-66
2021/10/23 01:10:24;;;;;;;49.85;32.13;;;;;;;;;;6239947;28;19925;-66
2021/10/23 01:13:25;;;;;;;49.55;32.63;;;;;;;;;;6248502;28;20053;-65
2021/10/23 01:16:27;;;;;;;48.20;31.58;;;;;;;;;;6231145;28;20046;-65
2021/10/23 01:19:30;;;;;;;47.00;31.75;;;;;;;;;;6244476;28;20045;-65
2021/10/23 01:22:32;;;;;;;50.10;34.13;;;;;;;;;;6235444;28;20171;-65
2021/10/23 01:25:34;;;;;;;46.80;31.98;;;;;;;;;;6242549;28;20060;-65
2021/10/23 01:28:35;;;;;;;53.95;32.88;;;;;;;;;;6250886;28;20048;-65
2021/10/23 01:31:37;;;;;;;49.28;32.85;;;;;;;;;;6235171;28;20179;-66
2021/10/23 01:34:38;;;;;;;46.00;31.05;;;;;;;;;;6252899;28;20045;-66
2021/10/23 01:37:42;;;;;;;47.22;32.28;;;;;;;;;;6242572;28;20045;-65
2021/10/23 01:40:44;;;;;;;48.95;31.92;;;;;;;;;;6248385;28;20057;-64
2021/10/23 01:43:45;;;;;;;55.10;32.97;;;;;;;;;;6255671;28;20651;-65
2021/10/23 01:46:46;;;;;;;49.00;32.50;;;;;;;;;;6236004;28;20041;-65
2021/10/23 01:49:48;;;;;;;47.90;32.45;;;;;;;;;;6240418;28;20053;-66
2021/10/23 01:52:51;;;;;;;45.75;30.25;;;;;;;;;;6229682;28;20134;-65
2021/10/23 01:55:52;;;;;;;45.60;30.07;;;;;;;;;;6238399;28;20049;-65
2021/10/23 01:58:54;;;;;;;43.50;29.35;;;;;;;;;;6248135;28;20057;-65
2021/10/23 02:01:55;;;;;;;46.47;30.55;;;;;;;;;;6228944;28;20094;-65
2021/10/23 02:04:56;;;;;;;46.13;31.13;;;;;;;;;;6238784;28;20665;-66
2021/10/23 02:07:59;;;;;;;50.97;29.70;;;;;;;;;;6235578;28;20247;-65
2021/10/23 02:11:00;;;;;;;44.15;31.17;;;;;;;;;;6234635;28;20048;-65
2021/10/23 02:14:02;;;;;;;49.78;32.38;;;;;;;;;;6248407;28;20173;-65
2021/10/23 02:17:03;;;;;;;45.90;30.23;;;;;;;;;;6230279;28;20102;-65
2021/10/23 02:20:06;;;;;;;49.20;32.80;;;;;;;;;;6249256;28;20106;-66
2021/10/23 02:23:08;;;;;;;44.47;30.27;;;;;;;;;;6243010;28;20134;-66
2021/10/23 02:26:10;;;;;;;48.10;31.65;;;;;;;;;;6238302;28;20159;-65
2021/10/23 02:29:11;;;;;;;47.85;33.55;;;;;;;;;;6251857;28;20630;-65
2021/10/23 02:32:13;;;;;;;45.83;31.58;;;;;;;;;;6233824;28;20076;-65
2021/10/23 02:35:14;;;;;;;46.50;31.58;;;;;;;;;;6232579;28;20060;-66
2021/10/23 02:38:17;;;;;;;46.15;30.98;;;;;;;;;;6243794;28;20519;-65
2021/10/23 02:41:22;;;;;;;46.42;31.95;;;;;;;;;;6238319;28;20509;-65
2021/10/23 02:44:24;;;;;;;46.10;30.67;;;;;;;;;;6246579;28;20140;-65
2021/10/23 02:47:25;;;;;;;47.85;31.88;;;;;;;;;;6234486;28;20065;-65
2021/10/23 02:50:27;;;;;;;44.03;29.35;;;;;;;;;;6237527;28;21042;-65
2021/10/23 02:53:30;;;;;;;40.20;27.70;;;;;;;;;;6255787;28;20064;-65
2021/10/23 02:56:31;;;;;;;40.22;27.80;;;;;;;;;;6243730;28;20080;-66
2021/10/23 02:59:33;;;;;;;38.55;26.60;;;;;;;;;;6255718;28;20091;-65
2021/10/23 03:02:34;;;;;;;35.65;25.73;;;;;;;;;;6229791;28;20122;-65
2021/10/23 03:05:35;;;;;;;38.30;25.40;;;;;;;;;;6233857;28;20815;-65
2021/10/23 03:08:38;;;;;;;36.10;24.88;;;;;;;;;;6256513;28;20060;-66
2021/10/23 03:11:40;;;;;;;36.95;25.33;;;;;;;;;;6248402;28;20388;-66
2021/10/23 03:14:41;;;;;;;34.95;23.05;;;;;;;;;;6255188;28;20110;-66
2021/10/23 03:17:43;;;;;;;36.28;23.95;;;;;;;;;;6235624;28;20051;-66
2021/10/23 03:20:44;;;;;;;35.40;24.85;;;;;;;;;;6245021;28;20041;-66
2021/10/23 03:23:47;;;;;;;37.85;24.38;;;;;;;;;;6250481;28;20850;-66
2021/10/23 03:26:48;;;;;;;31.27;20.97;;;;;;;;;;6236756;28;20038;-66
2021/10/23 03:29:50;;;;;;;30.08;20.83;;;;;;;;;;6258606;28;20122;-66
2021/10/23 03:32:51;;;;;;;31.73;21.52;;;;;;;;;;6233482;28;20485;-64
2021/10/23 03:35:53;;;;;;;26.48;18.55;;;;;;;;;;6236032;28;20191;-65
2021/10/23 03:38:55;;;;;;;26.00;17.95;;;;;;;;;;6254797;28;20053;-65
2021/10/23 03:41:57;;;;;;;24.42;17.58;;;;;;;;;;6240387;28;20053;-64
2021/10/23 03:44:58;;;;;;;23.45;16.23;;;;;;;;;;6252320;28;20081;-65
2021/10/23 03:48:00;;;;;;;24.67;15.95;;;;;;;;;;6237517;28;20139;-65
2021/10/23 03:51:01;;;;;;;22.23;16.30;;;;;;;;;;6241557;28;20040;-64
2021/10/23 03:54:04;;;;;;;24.20;16.35;;;;;;;;;;6254438;28;20048;-64
2021/10/23 03:57:05;;;;;;;23.65;16.30;;;;;;;;;;6247332;28;20052;-65
2021/10/23 04:00:07;;;;;;;24.30;16.73;;;;;;;;;;6249809;28;20040;-65
2021/10/23 04:03:09;;;;;;;24.45;17.17;;;;;;;;;;6245543;28;20102;-64
2021/10/23 04:06:10;;;;;;;26.13;16.48;;;;;;;;;;6243240;28;20045;-64
2021/10/23 04:09:13;;;;;;;24.10;16.48;;;;;;;;;;6250034;28;20136;-65
2021/10/23 04:12:14;;;;;;;27.02;18.13;;;;;;;;;;6245992;28;20179;-65
2021/10/23 04:15:16;;;;;;;24.13;17.17;;;;;;;;;;6244337;28;20045;-66
2021/10/23 04:18:17;;;;;;;26.13;18.00;;;;;;;;;;6244039;28;20183;-67
2021/10/23 04:21:19;;;;;;;28.55;17.33;;;;;;;;;;6243375;28;20278;-67
2021/10/23 04:24:22;;;;;;;25.50;17.67;;;;;;;;;;6244732;28;20037;-65
2021/10/23 04:27:23;;;;;;;26.48;19.17;;;;;;;;;;6231557;28;20045;-66
2021/10/23 04:30:24;;;;;;;26.10;18.17;;;;;;;;;;6236011;28;20056;-66
2021/10/23 04:33:26;;;;;;;24.70;17.33;;;;;;;;;;6228294;28;20049;-66
2021/10/23 04:36:27;;;;;;;25.48;17.90;;;;;;;;;;6231084;28;20098;-65
2021/10/23 04:39:30;;;;;;;25.48;17.25;;;;;;;;;;6249418;28;20503;-66
2021/10/23 04:42:32;;;;;;;32.08;18.75;;;;;;;;;;6239981;28;20060;-65
2021/10/23 04:45:33;;;;;;;29.33;19.45;;;;;;;;;;6231547;28;20533;-66
2021/10/23 04:48:35;;;;;;;27.55;19.30;;;;;;;;;;6243736;28;20180;-66
2021/10/23 04:51:36;;;;;;;29.80;20.50;;;;;;;;;;6245353;28;20045;-66
2021/10/23 04:54:39;;;;;;;27.15;18.65;;;;;;;;;;6246895;28;20456;-65
2021/10/23 04:57:40;;;;;;;25.40;17.80;;;;;;;;;;6245612;28;20474;-65
2021/10/23 05:00:42;;;;;;;24.38;15.73;;;;;;;;;;6236351;28;20882;-66
2021/10/23 05:03:43;;;;;;;23.05;16.20;;;;;;;;;;6245337;28;20051;-65
2021/10/23 05:06:44;;;;;;;23.52;15.73;;;;;;;;;;6241967;28;20054;-65
2021/10/23 05:09:47;;;;;;;19.90;14.88;;;;;;;;;;6254751;28;20498;-65
2021/10/23 05:12:48;;;;;;;21.70;13.80;;;;;;;;;;6249545;28;20499;-65
2021/10/23 05:15:50;;;;;;;18.35;12.98;;;;;;;;;;6245744;28;21070;-65
2021/10/23 05:18:51;;;;;;;21.13;13.63;;;;;;;;;;6247031;28;20500;-65
2021/10/23 05:21:53;;;;;;;20.40;12.70;;;;;;;;;;6239206;28;20442;-65
2021/10/23 05:24:55;;;;;;;15.98;12.32;;;;;;;;;;6255310;28;20045;-66
2021/10/23 05:27:57;;;;;;;18.13;12.15;;;;;;;;;;6240429;28;20094;-65
2021/10/23 05:30:59;;;;;;;17.35;12.15;;;;;;;;;;6231414;28;20067;-66
2021/10/23 05:34:00;;;;;;;18.95;12.75;;;;;;;;;;6245124;28;20049;-65
2021/10/23 05:37:02;;;;;;;17.00;11.30;;;;;;;;;;6237574;28;20042;-65
2021/10/23 05:40:05;;;;;;;14.77;10.90;;;;;;;;;;6248826;28;20047;-66
2021/10/23 05:43:06;;;;;;;18.38;11.50;;;;;;;;;;6246511;28;20049;-66
2021/10/23 05:46:08;;;;;;;18.80;10.82;;;;;;;;;;6229630;28;20146;-66
2021/10/23 05:49:09;;;;;;;16.30;11.20;;;;;;;;;;6245291;28;20136;-65
2021/10/23 05:52:10;;;;;;;16.17;9.73;;;;;;;;;;6233667;28;20227;-66
2021/10/23 05:55:13;;;;;;;14.32;10.35;;;;;;;;;;6237032;28;20079;-66
2021/10/23 05:58:15;;;;;;;14.07;9.98;;;;;;;;;;6243670;28;20085;-64
2021/10/23 06:01:16;;;;;;;15.32;9.52;;;;;;;;;;6234499;28;20041;-65
2021/10/23 06:04:17;;;;;;;16.25;9.32;;;;;;;;;;6242684;28;20068;-66
2021/10/23 06:07:19;;;;;;;11.48;8.73;;;;;;;;;;6240018;28;20045;-65
2021/10/23 06:10:22;;;;;;;17.60;10.02;;;;;;;;;;6239674;28;20052;-65
2021/10/23 06:13:24;;;;;;;14.18;9.80;;;;;;;;;;6245567;28;20128;-65
2021/10/23 06:16:25;;;;;;;13.23;9.30;;;;;;;;;;6235884;28;20057;-67
2021/10/23 06:19:27;;;;;;;14.80;9.32;;;;;;;;;;6246506;28;20424;-66
2021/10/23 06:22:28;;;;;;;15.18;9.65;;;;;;;;;;6222510;28;20608;-67
2021/10/23 06:25:31;;;;;;;14.40;9.40;;;;;;;;;;6233745;28;20106;-66
2021/10/23 06:28:36;;;;;;;14.73;9.75;;;;;;;;;;6252247;28;20057;-67
2021/10/23 06:31:37;;;;;;;15.98;10.13;;;;;;;;;;6238206;28;20060;-67
2021/10/23 06:34:41;;;;;;;13.27;9.68;;;;;;;;;;6249568;28;20042;-66
2021/10/23 06:37:42;;;;;;;15.32;10.40;;;;;;;;;;6242966;28;20041;-66
2021/10/23 06:40:45;;;;;;;15.82;10.07;;;;;;;;;;6230752;28;20121;-66
2021/10/23 06:43:46;;;;;;;16.17;10.85;;;;;;;;;;6255603;28;20065;-66
2021/10/23 06:46:47;;;;;;;17.92;10.73;;;;;;;;;;6228891;28;20168;-66
2021/10/23 06:49:49;;;;;;;16.02;10.20;;;;;;;;;;6243918;28;20041;-66
2021/10/23 06:52:50;;;;;;;15.77;11.00;;;;;;;;;;6233405;28;20053;-66
2021/10/23 06:55:53;;;;;;;15.02;10.85;;;;;;;;;;6239706;28;20118;-66
2021/10/23 06:58:55;;;;;;;19.73;12.93;;;;;;;;;;6250951;28;20094;-66
2021/10/23 07:01:57;;;;;;;19.45;12.73;;;;;;;;;;6231267;28;20037;-66
2021/10/23 07:04:58;;;;;;;19.88;12.70;;;;;;;;;;6261780;28;20120;-66
2021/10/23 07:08:00;;;;;;;19.58;13.50;;;;;;;;;;6245572;28;20056;-66
2021/10/23 07:11:02;;;;;;;19.67;13.05;;;;;;;;;;6240161;28;20051;-65
2021/10/23 07:14:04;;;;;;;17.80;12.45;;;;;;;;;;6255321;28;20206;-65
2021/10/23 07:17:05;;;;;;;18.42;12.10;;;;;;;;;;6244044;28;20474;-66
2021/10/23 07:20:07;;;;;;;21.20;13.27;;;;;;;;;;6240363;28;20588;-67
2021/10/23 07:23:08;;;;;;;19.42;12.95;;;;;;;;;;6235407;28;20052;-66
2021/10/23 07:26:11;;;;;;;19.02;12.80;;;;;;;;;;6230819;28;20053;-66
2021/10/23 07:29:13;;;;;;;16.52;12.38;;;;;;;;;;6252034;28;20049;-66
2021/10/23 07:32:14;;;;;;;17.60;11.88;;;;;;;;;;6245576;28;20118;-67
2021/10/23 07:35:15;;;;;;;17.52;12.05;;;;;;;;;;6240181;28;20160;-67
2021/10/23 07:38:17;;;;;;;18.65;12.45;;;;;;;;;;6255252;28;20041;-66
2021/10/23 07:41:20;;;;;;;20.55;13.75;;;;;;;;;;6233655;28;20407;-66
2021/10/23 07:44:21;;;;;;;19.67;12.73;;;;;;;;;;6258547;28;20064;-66
2021/10/23 07:47:23;;;;;;;20.13;12.93;;;;;;;;;;6233794;28;20041;-66
2021/10/23 07:50:24;;;;;;;18.50;12.45;;;;;;;;;;6231909;28;20128;-66
2021/10/23 07:53:25;;;;;;;25.27;13.70;;;;;;;;;;6239742;28;20516;-66
2021/10/23 07:56:28;;;;;;;20.50;13.57;;;;;;;;;;6251169;28;20183;-66
2021/10/23 07:59:29;;;;;;;20.08;13.88;;;;;;;;;;6251700;28;20053;-66
2021/10/23 08:02:31;;;;;;;19.05;13.73;;;;;;;;;;6236770;28;20049;-66
2021/10/23 08:05:33;;;;;;;19.48;14.35;;;;;;;;;;6237273;28;20052;-66
2021/10/23 08:08:35;;;;;;;21.30;13.95;;;;;;;;;;6253052;28;20120;-65
2021/10/23 08:11:38;;;;;;;22.65;14.15;;;;;;;;;;6242244;28;20158;-65
2021/10/23 08:14:40;;;;;;;19.60;13.80;;;;;;;;;;6255855;28;20049;-65
2021/10/23 08:17:41;;;;;;;22.45;14.55;;;;;;;;;;6232833;28;20055;-66
2021/10/23 08:20:43;;;;;;;21.42;14.77;;;;;;;;;;6255614;28;20136;-65
2021/10/23 08:23:44;;;;;;;21.35;14.48;;;;;;;;;;6260528;28;20476;-65
2021/10/23 08:26:47;;;;;;;19.65;14.50;;;;;;;;;;6238998;28;20046;-66
2021/10/23 08:29:49;;;;;;;21.33;13.97;;;;;;;;;;6257805;28;20047;-66
2021/10/23 08:32:50;;;;;;;22.95;16.33;;;;;;;;;;6243307;28;20570;-66
2021/10/23 08:35:51;;;;;;;21.42;14.95;;;;;;;;;;6238613;28;20235;-66
2021/10/23 08:38:54;;;;;;;24.48;15.63;;;;;;;;;;6249834;28;20080;-65
2021/10/23 08:41:57;;;;;;;25.08;16.75;;;;;;;;;;6243897;28;20512;-65
2021/10/23 08:44:59;;;;;;;24.40;17.35;;;;;;;;;;6251448;28;20529;-66
2021/10/23 08:48:03;;;;;;;28.15;17.58;;;;;;;;;;6240853;28;20052;-66
2021/10/23 08:51:05;;;;;;;;;;;;;;;;;;6243859;28;20052;-66
2021/10/23 08:54:06;;;;;;;30.70;18.45;;;;;;;;;;6253484;28;19983;-66
2021/10/23 08:57:09;;;;;;;29.10;18.55;;;;;;;;;;6250648;28;20048;-66
2021/10/23 09:00:11;;;;;;;27.48;17.88;;;;;;;;;;6254358;28;20401;-67
2021/10/23 09:03:12;;;;;;;28.02;19.00;;;;;;;;;;6246992;28;20067;-65
2021/10/23 09:06:15;;;;;;;25.65;18.58;;;;;;;;;;6245184;28;20067;-66
2021/10/23 09:09:16;;;;;;;28.25;18.63;;;;;;;;;;6252891;28;20130;-66
2021/10/23 09:12:20;;;;;;;27.50;18.80;;;;;;;;;;6251432;28;20052;-66
2021/10/23 09:15:22;;;;;;;34.58;19.63;;;;;;;;;;6252570;28;20057;-67
2021/10/23 09:18:38;;;;;;;28.98;17.60;;;;;;;;;;6253127;28;20175;-66
2021/10/23 09:21:39;;;;;;;26.23;17.50;;;;;;;;;;6240518;28;20041;-66
2021/10/23 09:24:41;;;;;;;28.13;18.40;;;;;;;;;;6251503;28;20171;-66
2021/10/23 09:27:47;;;;;;;27.00;18.35;;;;;;;;;;6248181;28;20049;-66
2021/10/23 09:30:50;;;;;;;27.63;17.92;;;;;;;;;;6232866;28;20830;-66
2021/10/23 09:33:58;;;;;;;25.83;19.07;;;;;;;;;;6248017;28;20045;-66
2021/10/23 09:37:02;;;;;;;30.75;19.77;;;;;;;;;;6246619;28;20071;-65
2021/10/23 09:40:06;;;;;;;25.17;18.95;;;;;;;;;;6249382;28;20048;-66
2021/10/23 09:43:10;;;;;;;28.80;19.80;;;;;;;;;;6256212;28;20105;-66
2021/10/23 09:46:12;;;;;;;30.20;19.45;;;;;;;;;;6241988;28;20122;-66
2021/10/23 09:49:13;;;;;;;25.13;19.27;;;;;;;;;;6246450;28;20045;-65
2021/10/23 09:52:17;;;;;;;27.50;20.02;;;;;;;;;;6255423;28;20389;-66
2021/10/23 09:55:19;;;;;;;28.13;19.77;;;;;;;;;;6253099;28;20049;-67
2021/10/23 09:58:23;;;;;;;28.70;19.80;;;;;;;;;;6261149;28;20053;-66
2021/10/23 10:01:25;;;;;;;28.40;20.40;;;;;;;;;;6235374;28;20123;-66
2021/10/23 10:04:29;;;;;;;32.72;20.92;;;;;;;;;;6258405;28;20136;-66
2021/10/23 10:07:31;;;;;;;32.40;21.40;;;;;;;;;;6248280;28;20040;-66
2021/10/23 10:10:34;;;;;;;34.33;21.23;;;;;;;;;;6253610;28;20051;-66
2021/10/23 10:13:37;;;;;;;31.55;21.33;;;;;;;;;;6260123;28;20053;-66
2021/10/23 10:16:41;;;;;;;31.75;22.27;;;;;;;;;;6233854;28;20041;-66
2021/10/23 10:19:43;;;;;;;37.58;23.55;;;;;;;;;;6258924;28;20041;-66
2021/10/23 10:22:50;;;;;;;28.35;21.52;;;;;;;;;;6235971;28;20045;-66
2021/10/23 10:26:10;;;;;;;31.02;21.88;;;;;;;;;;6242871;28;20057;-66
2021/10/23 10:29:15;;;;;;;32.92;23.02;;;;;;;;;;6255717;28;20048;-66
2021/10/23 10:32:21;;;;;;;31.27;22.42;;;;;;;;;;6240506;28;20134;-66
2021/10/23 10:35:45;;;;;;;28.13;21.10;;;;;;;;;;6247538;28;20049;-67
2021/10/23 10:39:02;;;;;;;31.30;20.27;;;;;;;;;;6245671;28;20045;-66
2021/10/23 10:46:01;;;;;;;29.25;22.02;;;;;;;;;;6234829;28;20057;-66
2021/10/23 10:49:02;;;;;;;27.80;20.08;;;;;;;;;;6247107;28;20289;-66
2021/10/23 10:52:24;;;;;;;27.38;20.77;;;;;;;;;;6234887;28;20570;-66
2021/10/23 10:55:37;;;;;;;25.52;20.25;;;;;;;;;;6248990;28;20183;-66
2021/10/23 10:58:40;;;;;;;28.42;21.27;;;;;;;;;;6259165;28;20469;-65
2021/10/23 11:02:02;;;;;;;26.75;19.55;;;;;;;;;;6249547;28;20127;-65
2021/10/23 11:05:11;;;;;;;25.25;18.25;;;;;;;;;;6257595;28;20442;-66
2021/10/23 11:08:16;;;;;;;25.38;20.23;;;;;;;;;;6245996;28;20687;-66
2021/10/23 11:11:18;;;;;;;24.58;19.90;;;;;;;;;;6248867;28;20049;-66
2021/10/23 11:14:31;;;;;;;25.98;19.30;;;;;;;;;;6258311;28;20049;-66
2021/10/23 11:17:39;;;;;;;26.50;20.45;;;;;;;;;;6235948;28;21138;-66
2021/10/23 11:20:44;;;;;;;27.52;20.75;;;;;;;;;;6235174;28;20114;-65
2021/10/23 11:23:50;;;;;;;24.70;20.65;;;;;;;;;;6249209;28;20050;-65
2021/10/23 11:26:52;;;;;;;27.77;21.85;;;;;;;;;;6241978;28;20542;-67
2021/10/23 11:30:07;;;;;;;28.10;23.08;;;;;;;;;;6248792;28;20376;-66
2021/10/23 11:33:10;;;;;;;30.60;21.98;;;;;;;;;;6233153;28;20128;-65
2021/10/23 11:36:16;;;;;;;28.25;21.58;;;;;;;;;;6235771;28;20049;-66
2021/10/23 11:39:19;;;;;;;27.38;23.10;;;;;;;;;;6247520;28;20046;-66
2021/10/23 11:42:22;;;;;;;29.85;23.27;;;;;;;;;;6238743;28;20048;-66
2021/10/23 11:45:24;;;;;;;29.15;23.40;;;;;;;;;;6241075;28;20464;-66
2021/10/23 11:48:25;;;;;;;31.53;23.10;;;;;;;;;;6251817;28;20678;-66
2021/10/23 11:51:28;;;;;;;33.53;26.02;;;;;;;;;;6248694;28;20549;-65
2021/10/23 11:54:30;;;;;;;33.15;25.10;;;;;;;;;;6265452;28;20117;-66
2021/10/23 11:57:36;;;;;;;34.67;28.23;;;;;;;;;;6255547;28;20441;-66
2021/10/23 12:00:39;;;;;;;34.05;28.33;;;;;;;;;;6248155;28;20132;-66
2021/10/23 12:03:43;;;;;;;36.35;28.60;;;;;;;;;;6251152;28;20077;-66
2021/10/23 12:06:47;;;;;;;33.40;27.65;;;;;;;;;;6251560;28;20057;-66
2021/10/23 12:10:01;;;;;;;38.38;29.95;;;;;;;;;;6257264;28;20413;-67
2021/10/23 12:13:02;;;;;;;;;;;;;;;;;;6239940;28;20049;-66
2021/10/23 12:16:04;;;;;;;38.05;30.13;;;;;;;;;;6240564;28;20288;-66
2021/10/23 12:19:06;;;;;;;39.50;30.57;;;;;;;;;;6253902;28;20037;-66
2021/10/23 12:22:10;;;;;;;82.30;59.63;;;;;;;;;;6237099;28;20049;-66
2021/10/23 12:25:12;;;;;;;40.38;32.13;;;;;;;;;;6242521;28;20053;-66
2021/10/23 12:28:13;;;;;;;40.35;31.58;;;;;;;;;;6264671;28;20093;-65
2021/10/23 12:31:15;;;;;;;39.03;31.92;;;;;;;;;;6243659;28;20037;-65
2021/10/23 12:34:16;;;;;;;36.15;30.08;;;;;;;;;;6248248;28;20049;-66
2021/10/23 12:37:31;;;;;;;39.80;31.80;;;;;;;;;;6241293;28;20136;-65
2021/10/23 12:40:34;;;;;;;39.60;32.13;;;;;;;;;;6237752;28;20044;-66
2021/10/23 12:43:36;;;;;;;40.70;31.92;;;;;;;;;;6252493;28;20091;-66
2021/10/23 12:46:37;;;;;;;40.28;33.47;;;;;;;;;;6236981;28;20069;-65
2021/10/23 12:49:39;;;;;;;44.50;36.17;;;;;;;;;;6254070;28;20176;-65
2021/10/23 12:52:43;;;;;;;45.67;36.40;;;;;;;;;;6241270;28;20517;-65
2021/10/23 12:55:45;;;;;;;44.50;34.92;;;;;;;;;;6250427;28;20543;-65
2021/10/23 12:58:46;;;;;;;48.15;36.53;;;;;;;;;;6256318;28;20052;-65
2021/10/23 13:01:48;;;;;;;45.85;37.13;;;;;;;;;;6275849;28;20036;-66
2021/10/23 13:04:49;;;;;;;50.60;39.20;;;;;;;;;;6276850;28;20420;-65
2021/10/23 13:07:52;;;;;;;49.30;37.95;;;;;;;;;;6260187;28;20196;-65
2021/10/23 13:10:53;;;;;;;51.25;38.72;;;;;;;;;;6245136;28;20114;-65
2021/10/23 13:13:55;;;;;;;53.40;38.58;;;;;;;;;;6256477;28;20045;-65
2021/10/23 13:16:56;;;;;;;50.17;38.47;;;;;;;;;;6242556;28;20554;-65
2021/10/23 13:19:57;;;;;;;50.60;39.28;;;;;;;;;;6253396;28;20042;-65
2021/10/23 13:23:00;;;;;;;48.30;37.67;;;;;;;;;;6239622;28;20409;-64
2021/10/23 13:26:01;;;;;;;51.28;37.80;;;;;;;;;;6239621;28;20052;-65
2021/10/23 13:29:03;;;;;;;48.58;36.47;;;;;;;;;;6260385;28;20216;-67
2021/10/23 13:32:06;;;;;;;50.85;38.33;;;;;;;;;;6240272;28;20168;-65
2021/10/23 13:35:07;;;;;;;;;;;;;;;;;;6267328;28;20049;-66
2021/10/23 13:38:10;;;;;;;47.92;37.38;;;;;;;;;;6243661;28;20042;-65
2021/10/23 13:41:12;;;;;;;51.95;39.33;;;;;;;;;;6251411;28;20090;-64
2021/10/23 13:44:13;;;;;;;53.30;39.33;;;;;;;;;;6264403;28;20525;-64
2021/10/23 13:47:14;;;;;;;50.33;38.10;;;;;;;;;;6242556;28;20049;-65
2021/10/23 13:50:16;;;;;;;51.78;37.95;;;;;;;;;;6246168;28;20120;-66
2021/10/23 13:53:19;;;;;;;47.58;37.25;;;;;;;;;;6257245;28;20073;-64
2021/10/23 13:56:20;;;;;;;52.97;38.05;;;;;;;;;;6231269;28;20098;-65
2021/10/23 13:59:22;;;;;;;54.45;37.95;;;;;;;;;;6261467;28;20045;-65
2021/10/23 14:02:23;;;;;;;50.72;38.25;;;;;;;;;;6241765;28;20327;-65
2021/10/23 14:05:26;;;;;;;49.85;37.92;;;;;;;;;;6249828;28;20041;-65
2021/10/23 14:08:27;;;;;;;;;;;;;;;;;;6259604;28;20127;-65
2021/10/23 14:11:30;;;;;;;52.67;38.83;;;;;;;;;;6245914;28;19927;-65
2021/10/23 14:14:31;;;;;;;54.75;39.83;;;;;;;;;;6260489;28;20091;-65
2021/10/23 14:17:33;;;;;;;54.30;39.45;;;;;;;;;;6239857;28;20132;-65
2021/10/23 14:20:34;;;;;;;55.72;40.15;;;;;;;;;;6240230;28;20452;-67
2021/10/23 14:23:36;;;;;;;57.90;40.22;;;;;;;;;;6257069;28;20099;-66
2021/10/23 14:26:39;;;;;;;58.38;40.80;;;;;;;;;;6252316;28;20060;-67
2021/10/23 14:29:40;;;;;;;55.67;39.83;;;;;;;;;;6258429;28;20046;-64
2021/10/23 14:32:42;;;;;;;58.95;39.10;;;;;;;;;;6236581;28;20619;-64
2021/10/23 14:35:43;;;;;;;55.80;37.63;;;;;;;;;;6241020;28;20076;-64
2021/10/23 14:38:45;;;;;;;54.53;38.80;;;;;;;;;;6248818;28;20522;-64
2021/10/23 14:41:48;;;;;;;51.83;36.72;;;;;;;;;;6233763;28;20619;-65
2021/10/23 14:44:49;;;;;;;54.15;37.90;;;;;;;;;;6259299;28;20078;-66
2021/10/23 14:47:50;;;;;;;50.20;36.22;;;;;;;;;;6233254;28;20041;-67
2021/10/23 14:50:52;;;;;;;52.40;36.03;;;;;;;;;;6241146;28;20053;-65
2021/10/23 14:53:53;;;;;;;50.80;36.95;;;;;;;;;;6253012;28;20048;-66
2021/10/23 14:56:56;;;;;;;54.35;37.25;;;;;;;;;;6247778;28;20050;-64
2021/10/23 14:59:57;;;;;;;53.47;37.30;;;;;;;;;;6266617;28;20548;-66
2021/10/23 15:02:58;;;;;;;55.78;38.97;;;;;;;;;;6245773;28;20047;-64
2021/10/23 15:06:00;;;;;;;54.20;38.42;;;;;;;;;;6259379;28;20174;-64
2021/10/23 15:09:01;;;;;;;52.45;36.95;;;;;;;;;;6261634;28;20168;-64
2021/10/23 15:12:04;;;;;;;57.92;38.22;;;;;;;;;;6236875;28;20095;-65
2021/10/23 15:15:06;;;;;;;54.15;37.88;;;;;;;;;;6243231;28;20080;-66
2021/10/23 15:18:08;;;;;;;54.28;38.40;;;;;;;;;;6236386;28;20712;-67
2021/10/23 15:21:09;;;;;;;51.38;37.22;;;;;;;;;;6239624;28;20065;-64
2021/10/23 15:24:10;;;;;;;56.05;38.25;;;;;;;;;;6246680;28;20450;-64
2021/10/23 15:27:14;;;;;;;58.13;40.40;;;;;;;;;;6238982;28;20048;-67
2021/10/23 15:30:16;;;;;;;54.22;38.08;;;;;;;;;;6242186;28;20053;-66
2021/10/23 15:33:17;;;;;;;54.17;37.05;;;;;;;;;;6245620;28;20107;-65
2021/10/23 15:36:20;;;;;;;54.08;38.47;;;;;;;;;;6242732;28;20107;-66
2021/10/23 15:39:21;;;;;;;57.22;38.83;;;;;;;;;;6258840;28;20132;-66
2021/10/23 15:42:24;;;;;;;50.13;35.97;;;;;;;;;;6250386;28;20179;-66
2021/10/23 15:45:26;;;;;;;50.97;35.75;;;;;;;;;;6246134;28;20733;-64
2021/10/23 15:48:27;;;;;;;56.67;37.80;;;;;;;;;;6239283;28;20144;-65
2021/10/23 15:51:28;;;;;;;54.78;38.03;;;;;;;;;;6234226;28;20063;-65
2021/10/23 15:54:30;;;;;;;57.92;38.67;;;;;;;;;;6256481;28;20047;-64
2021/10/23 15:57:33;;;;;;;58.83;39.25;;;;;;;;;;6250003;28;20055;-65
2021/10/23 16:00:37;;;;;;;55.90;37.97;;;;;;;;;;6251238;28;20030;-65
2021/10/23 16:03:39;;;;;;;55.20;38.42;;;;;;;;;;6252574;28;20448;-66
2021/10/23 16:06:40;;;;;;;57.47;38.15;;;;;;;;;;6254419;28;20066;-66
2021/10/23 16:09:41;;;;;;;61.95;40.15;;;;;;;;;;6251459;28;20128;-66
2021/10/23 16:12:44;;;;;;;58.80;40.08;;;;;;;;;;6244645;28;20093;-66
2021/10/23 16:15:45;;;;;;;62.80;39.65;;;;;;;;;;6227954;28;20053;-67
2021/10/23 16:18:47;;;;;;;56.53;38.03;;;;;;;;;;6251479;28;20457;-65
2021/10/23 16:21:48;;;;;;;58.60;38.67;;;;;;;;;;6238997;28;20065;-66
2021/10/23 16:24:50;;;;;;;61.15;38.30;;;;;;;;;;6252066;28;20050;-66
2021/10/23 16:27:52;;;;;;;59.90;39.10;;;;;;;;;;6235073;28;20053;-66
2021/10/23 16:30:54;;;;;;;62.47;39.63;;;;;;;;;;6232019;28;20188;-65
2021/10/23 16:33:55;;;;;;;65.70;41.45;;;;;;;;;;6252906;28;20129;-66
2021/10/23 16:36:57;;;;;;;66.40;41.33;;;;;;;;;;6249755;28;20631;-65
2021/10/23 16:39:58;;;;;;;61.83;40.33;;;;;;;;;;6245948;28;20120;-65
2021/10/23 16:43:01;;;;;;;70.90;41.85;;;;;;;;;;6244863;28;20045;-65
2021/10/23 16:46:02;;;;;;;64.05;41.42;;;;;;;;;;6232295;28;20875;-67
2021/10/23 16:49:04;;;;;;;74.63;43.60;;;;;;;;;;6239094;28;20462;-65
2021/10/23 16:52:05;;;;;;;66.70;42.53;;;;;;;;;;6251434;28;20132;-66
2021/10/23 16:55:07;;;;;;;73.15;43.22;;;;;;;;;;6245327;28;20660;-67
2021/10/23 16:58:10;;;;;;;67.95;42.08;;;;;;;;;;6252707;28;20144;-66
2021/10/23 17:01:12;;;;;;;68.93;42.90;;;;;;;;;;6246818;28;20078;-66
2021/10/23 17:04:13;;;;;;;67.82;40.85;;;;;;;;;;6259462;28;20280;-66
2021/10/23 17:07:14;;;;;;;70.70;43.10;;;;;;;;;;6249638;28;20049;-65
2021/10/23 17:10:16;;;;;;;72.15;42.88;;;;;;;;;;6264015;28;20056;-66
2021/10/23 17:13:18;;;;;;;66.05;41.30;;;;;;;;;;6266914;28;20384;-65
2021/10/23 17:16:20;;;;;;;78.20;44.65;;;;;;;;;;6255228;28;20036;-65
2021/10/23 17:19:21;;;;;;;75.25;43.50;;;;;;;;;;6262364;28;20188;-65
2021/10/23 17:22:23;;;;;;;73.90;44.85;;;;;;;;;;6248004;28;20049;-66
2021/10/23 17:25:24;;;;;;;69.65;42.63;;;;;;;;;;6242103;28;20041;-66
2021/10/23 17:28:27;;;;;;;75.65;44.97;;;;;;;;;;6259535;28;20063;-65
2021/10/23 17:31:29;;;;;;;71.65;43.80;;;;;;;;;;6241679;28;21009;-65
2021/10/23 17:34:30;;;;;;;74.38;45.95;;;;;;;;;;6251881;28;20049;-65
2021/10/23 17:37:32;;;;;;;79.72;44.70;;;;;;;;;;6248688;28;20052;-65
2021/10/23 17:40:33;;;;;;;79.32;46.40;;;;;;;;;;6240997;28;20521;-65
2021/10/23 17:43:36;;;;;;;76.93;45.30;;;;;;;;;;6256584;28;20159;-65
2021/10/23 17:46:37;;;;;;;79.32;46.20;;;;;;;;;;6236107;28;20106;-65